createdAt,value
2017-11-18T00:01:11.421Z,93.80
2017-11-18T00:03:39.005Z,93.80
2017-11-18T00:06:07.385Z,93.80
2017-11-18T00:08:34.960Z,93.80
2017-11-18T00:11:04.612Z,93.90
2017-11-18T00:13:33.009Z,93.90
2017-11-18T00:16:05.012Z,93.90
2017-11-18T00:18:32.594Z,93.80
2017-11-18T00:21:01.735Z,93.70
2017-11-18T00:23:30.136Z,93.70
2017-11-18T00:34:40.859Z,94.40
2017-11-18T00:37:12.226Z,94.40
2017-11-18T00:39:42.633Z,94.40
2017-11-18T00:42:11.675Z,94.50
2017-11-18T00:47:28.923Z,94.60
2017-11-18T00:50:15.690Z,94.50
2017-11-18T00:52:48.099Z,94.40
2017-11-18T00:55:22.344Z,94.60
2017-11-18T00:57:57.934Z,94.40
2017-11-18T01:00:27.531Z,94.50
2017-11-18T01:03:03.934Z,94.40
2017-11-18T01:05:40.919Z,94.50
2017-11-18T01:08:10.137Z,94.40
2017-11-18T01:10:40.134Z,94.50
2017-11-18T01:13:24.896Z,94.40
2017-11-18T01:15:58.088Z,94.40
2017-11-18T01:18:26.629Z,94.40
2017-11-18T01:20:54.196Z,94.30
2017-11-18T01:23:37.666Z,94.30
2017-11-18T01:26:14.489Z,94.20
2017-11-18T01:28:45.890Z,94.10
2017-11-18T01:33:59.222Z,94.00
2017-11-18T01:36:42.073Z,93.80
2017-11-18T01:39:14.692Z,93.70
2017-11-18T01:41:49.859Z,93.60
2017-11-18T01:44:32.679Z,93.90
2017-11-18T01:49:47.060Z,94.60
2017-11-18T01:52:30.525Z,95.20
2017-11-18T01:55:12.830Z,95.20
2017-11-18T01:57:48.586Z,95.40
2017-11-18T02:00:25.053Z,95.20
2017-11-18T02:42:20.125Z,95.20
2017-11-18T02:44:53.001Z,96.70
2017-11-18T02:47:26.047Z,96.70
2017-11-18T02:52:38.962Z,96.60
2017-11-18T02:55:18.997Z,96.60
2017-11-18T02:57:57.531Z,96.50
2017-11-18T03:00:30.520Z,95.70
2017-11-18T03:03:04.552Z,95.30
2017-11-18T03:05:35.122Z,95.30
2017-11-18T03:08:09.945Z,95.20
2017-11-18T03:10:42.958Z,95.20
2017-11-18T03:13:19.083Z,95.30
2017-11-18T03:16:21.622Z,95.30
2017-11-18T03:18:58.985Z,95.40
2017-11-18T03:21:32.650Z,95.50
2017-11-18T03:24:09.673Z,95.50
2017-11-18T03:26:40.590Z,95.40
2017-11-18T03:32:01.039Z,95.40
2017-11-18T03:34:33.769Z,95.30
2017-11-18T03:37:04.942Z,95.30
2017-11-18T03:39:39.685Z,95.20
2017-11-18T03:42:27.518Z,95.20
2017-11-18T03:47:54.310Z,95.30
2017-11-18T03:50:24.980Z,95.30
2017-11-18T03:53:11.432Z,95.30
2017-11-18T04:01:40.240Z,95.20
2017-11-18T04:04:12.627Z,95.00
2017-11-18T04:06:42.811Z,94.60
2017-11-18T04:09:11.907Z,94.60
2017-11-18T04:14:19.193Z,95.20
2017-11-18T04:16:51.326Z,95.30
2017-11-18T04:19:23.773Z,95.30
2017-11-18T04:21:56.759Z,95.40
2017-11-18T04:24:30.850Z,95.50
2017-11-18T04:26:59.831Z,95.50
2017-11-18T04:32:10.028Z,95.60
2017-11-18T04:34:39.284Z,95.30
2017-11-18T04:37:08.858Z,94.80
2017-11-18T04:39:40.276Z,94.80
2017-11-18T04:44:54.211Z,95.00
2017-11-18T04:47:23.719Z,95.10
2017-11-18T04:52:33.586Z,94.70
2017-11-18T04:55:05.449Z,95.30
2017-11-18T04:57:37.574Z,95.20
2017-11-18T05:00:19.738Z,95.00
2017-11-18T05:11:15.330Z,94.90
2017-11-18T05:13:46.418Z,94.70
2017-11-18T05:16:17.544Z,94.90
2017-11-18T05:18:48.555Z,95.00
2017-11-18T05:21:20.261Z,95.30
2017-11-18T05:23:52.896Z,95.20
2017-11-18T05:26:27.060Z,95.60
2017-11-18T05:29:13.804Z,96.10
2017-11-18T05:31:54.196Z,96.20
2017-11-18T05:37:29.881Z,96.70
2017-11-18T05:40:10.646Z,96.50
2017-11-18T05:42:42.668Z,96.50
2017-11-18T05:45:15.970Z,96.20
2017-11-18T05:47:46.859Z,96.50
2017-11-18T05:56:09.849Z,95.80
2017-11-18T05:58:49.961Z,95.80
2017-11-18T06:01:33.167Z,95.70
2017-11-18T06:04:09.864Z,95.50
2017-11-18T06:09:25.133Z,95.50
2017-11-18T07:32:45.693Z,95.50
2017-11-18T07:37:54.149Z,96.60
2017-11-18T07:40:23.813Z,96.70
2017-11-18T07:45:34.758Z,96.40
2017-11-18T07:48:11.185Z,96.40
2017-11-18T07:50:38.954Z,96.30
2017-11-18T07:53:12.372Z,95.90
2017-11-18T07:55:47.099Z,95.60
2017-11-18T07:58:15.938Z,95.60
2017-11-18T08:00:45.945Z,95.30
2017-11-18T08:03:19.302Z,95.00
2017-11-18T08:05:47.435Z,94.60
2017-11-18T08:08:18.269Z,94.40
2017-11-18T08:10:46.999Z,94.20
2017-11-18T08:13:27.228Z,93.30
2017-11-18T08:15:59.332Z,94.00
2017-11-18T08:18:31.611Z,94.10
2017-11-18T08:21:02.997Z,94.20
2017-11-18T08:23:35.822Z,94.30
2017-11-18T08:26:06.303Z,94.50
2017-11-18T08:31:38.675Z,94.80
2017-11-18T08:34:10.618Z,93.80
2017-11-18T08:36:43.016Z,93.90
2017-11-18T08:39:11.364Z,93.40
2017-11-18T08:41:42.098Z,93.30
2017-11-18T08:44:12.965Z,93.30
2017-11-18T08:46:42.599Z,93.90
2017-11-18T08:49:12.320Z,93.90
2017-11-18T08:51:45.323Z,93.80
2017-11-18T08:54:16.982Z,93.70
2017-11-18T08:56:50.945Z,94.10
2017-11-18T09:02:12.351Z,93.90
2017-11-18T09:04:41.899Z,93.70
2017-11-18T09:07:13.904Z,93.60
2017-11-18T09:09:47.261Z,93.50
2017-11-18T09:12:21.302Z,93.50
2017-11-18T09:14:55.356Z,93.20
2017-11-18T09:17:29.249Z,93.10
2017-11-18T09:19:57.728Z,93.40
2017-11-18T09:22:33.922Z,93.70
2017-11-18T09:25:05.101Z,93.80
2017-11-18T09:27:34.825Z,93.80
2017-11-18T09:30:03.248Z,94.00
2017-11-18T09:32:34.484Z,93.90
2017-11-18T09:35:08.133Z,94.10
2017-11-18T09:40:13.301Z,94.30
2017-11-18T09:42:47.316Z,94.50
2017-11-18T09:45:14.976Z,94.60
2017-11-18T09:47:55.089Z,94.60
2017-11-18T09:50:23.436Z,94.50
2017-11-18T09:52:53.365Z,94.70
2017-11-18T09:55:21.864Z,94.60
2017-11-18T09:57:50.890Z,94.30
2017-11-18T10:00:22.008Z,94.20
2017-11-18T10:02:49.630Z,94.20
2017-11-18T10:05:22.456Z,93.90
2017-11-18T10:07:52.539Z,93.90
2017-11-18T10:10:22.877Z,94.40
2017-11-18T10:12:50.540Z,94.30
2017-11-18T10:15:19.465Z,94.30
2017-11-18T10:17:49.784Z,94.10
2017-11-18T10:20:19.198Z,93.80
2017-11-18T11:06:36.199Z,92.50
2017-11-18T11:09:08.485Z,92.40
2017-11-18T11:11:40.850Z,92.00
2017-11-18T11:14:14.197Z,91.60
2017-11-18T11:19:22.913Z,90.50
2017-11-18T11:21:55.278Z,90.10
2017-11-18T11:24:23.826Z,90.30
2017-11-18T11:26:52.308Z,90.40
2017-11-18T11:29:23.112Z,88.80
2017-11-18T11:31:55.042Z,88.20
2017-11-18T11:37:05.625Z,87.90
2017-11-18T11:39:35.208Z,88.70
2017-11-18T11:42:06.735Z,86.70
2017-11-18T11:44:36.478Z,86.70
2017-11-18T11:47:10.659Z,86.30
2017-11-18T11:49:42.325Z,87.40
2017-11-18T11:52:13.214Z,87.50
2017-11-18T11:54:43.854Z,85.50
2017-11-18T11:57:15.401Z,84.60
2017-11-18T11:59:44.948Z,82.80
2017-11-18T12:02:17.911Z,81.60
2017-11-18T12:04:47.588Z,81.10
2017-11-18T12:07:19.270Z,80.30
2017-11-18T12:15:11.380Z,81.10
2017-11-18T12:17:40.263Z,80.30
2017-11-18T12:20:17.389Z,80.00
2017-11-18T12:22:55.153Z,80.00
2017-11-18T12:25:29.638Z,79.90
2017-11-18T12:30:36.351Z,80.30
2017-11-18T12:33:12.448Z,80.40
2017-11-18T12:35:41.106Z,80.30
2017-11-18T12:40:53.673Z,81.30
2017-11-18T12:43:30.115Z,81.20
2017-11-18T12:45:59.506Z,79.10
2017-11-18T12:48:27.344Z,79.00
2017-11-18T12:51:05.110Z,79.10
2017-11-18T12:53:33.928Z,78.70
2017-11-18T12:56:08.902Z,79.00
2017-11-18T12:58:38.060Z,79.90
2017-11-18T13:01:05.618Z,79.80
2017-11-18T13:03:33.213Z,79.90
2017-11-18T13:06:04.363Z,79.60
2017-11-18T13:08:34.640Z,78.70
2017-11-18T13:11:02.200Z,80.20
2017-11-18T13:13:37.342Z,80.40
2017-11-18T13:16:07.678Z,79.40
2017-11-18T13:18:36.273Z,79.10
2017-11-18T13:21:05.636Z,79.30
2017-11-18T13:23:34.425Z,80.10
2017-11-18T13:26:07.354Z,78.40
2017-11-18T13:28:36.951Z,79.40
2017-11-18T13:31:05.501Z,79.40
2017-11-18T13:33:39.366Z,78.20
2017-11-18T13:36:16.247Z,80.40
2017-11-18T13:38:46.011Z,78.30
2017-11-18T13:41:15.107Z,78.80
2017-11-18T13:46:31.782Z,79.40
2017-11-18T13:49:00.251Z,77.80
2017-11-18T13:51:29.439Z,77.20
2017-11-18T13:53:57.012Z,77.20
2017-11-18T13:56:24.566Z,77.10
2017-11-18T13:58:53.118Z,77.10
2017-11-18T14:01:22.655Z,78.00
2017-11-18T14:03:51.053Z,78.00
2017-11-18T14:06:25.310Z,76.90
2017-11-18T14:08:54.398Z,75.30
2017-11-18T14:11:22.805Z,75.90
2017-11-18T14:13:51.253Z,75.50
2017-11-18T14:16:20.321Z,76.20
2017-11-18T14:18:48.064Z,76.10
2017-11-18T14:21:17.589Z,76.50
2017-11-18T14:23:46.320Z,76.20
2017-11-18T14:26:15.955Z,76.30
2017-11-18T14:28:51.515Z,75.70
2017-11-18T14:31:26.148Z,75.60
2017-11-18T14:33:55.114Z,75.60
2017-11-18T14:39:02.689Z,75.10
2017-11-18T14:41:39.481Z,75.30
2017-11-18T14:44:08.533Z,75.00
2017-11-18T14:46:38.583Z,75.00
2017-11-18T14:49:06.803Z,75.40
2017-11-18T14:51:43.352Z,75.80
2017-11-18T14:54:16.463Z,75.80
2017-11-18T14:56:49.210Z,75.30
2017-11-18T14:59:19.534Z,76.30
2017-11-18T15:01:47.676Z,76.20
2017-11-18T15:04:16.491Z,76.30
2017-11-18T15:06:44.982Z,75.40
2017-11-18T15:09:14.506Z,76.20
2017-11-18T15:11:45.814Z,76.60
2017-11-18T15:14:14.197Z,77.90
2017-11-18T15:19:50.277Z,78.60
2017-11-18T15:22:24.179Z,79.10
2017-11-18T15:24:59.355Z,80.80
2017-11-18T15:27:33.384Z,78.10
2017-11-18T15:33:22.985Z,78.90
2017-11-18T15:35:56.257Z,78.50
2017-11-18T15:38:30.532Z,80.30
2017-11-18T15:40:59.798Z,81.10
2017-11-18T15:43:42.399Z,80.70
2017-11-18T15:46:12.939Z,81.80
2017-11-18T15:48:47.120Z,82.50
2017-11-18T15:51:14.852Z,83.00
2017-11-18T15:53:49.669Z,82.40
2017-11-18T15:56:33.261Z,82.40
2017-11-18T15:59:13.726Z,83.30
2017-11-18T16:01:47.085Z,82.70
2017-11-18T16:04:20.570Z,82.10
2017-11-18T16:07:07.745Z,83.70
2017-11-18T16:09:35.430Z,83.50
2017-11-18T16:12:04.215Z,83.60
2017-11-18T16:14:31.853Z,83.70
2017-11-18T16:17:00.318Z,83.90
2017-11-18T16:19:29.560Z,83.80
2017-11-18T16:21:57.925Z,81.30
2017-11-18T16:24:25.562Z,81.20
2017-11-18T16:26:53.288Z,80.40
2017-11-18T16:29:21.045Z,80.40
2017-11-18T16:31:48.632Z,81.30
2017-11-18T16:34:16.613Z,81.60
2017-11-18T16:36:44.243Z,81.50
2017-11-18T16:39:13.255Z,82.40
2017-11-18T16:41:40.863Z,82.30
2017-11-18T16:44:08.573Z,81.50
2017-11-18T16:46:36.199Z,80.90
2017-11-18T16:49:03.951Z,80.00
2017-11-18T16:51:31.648Z,80.00
2017-11-18T16:53:59.285Z,80.10
2017-11-18T16:56:28.715Z,79.60
2017-11-18T16:58:57.288Z,79.60
2017-11-18T17:01:25.069Z,79.60
2017-11-18T17:03:54.466Z,79.10
2017-11-18T17:06:22.157Z,78.90
2017-11-18T17:08:50.426Z,78.80
2017-11-18T17:11:18.882Z,80.60
2017-11-18T17:13:46.644Z,80.50
2017-11-18T17:16:14.232Z,81.10
2017-11-18T17:18:41.941Z,80.60
2017-11-18T17:21:09.494Z,80.90
2017-11-18T17:23:38.702Z,82.10
2017-11-18T17:26:07.236Z,82.50
2017-11-18T17:28:34.890Z,81.80
2017-11-18T17:31:02.644Z,82.60
2017-11-18T17:33:33.795Z,82.70
2017-11-18T17:36:02.435Z,81.50
2017-11-18T17:38:30.109Z,82.60
2017-11-18T17:40:59.312Z,83.00
2017-11-18T17:43:26.995Z,80.70
2017-11-18T17:45:54.734Z,81.70
2017-11-18T17:48:23.379Z,80.90
2017-11-18T17:50:52.005Z,80.60
2017-11-18T17:53:19.700Z,80.30
2017-11-18T17:55:47.452Z,80.60
2017-11-18T17:58:16.073Z,80.60
2017-11-18T18:00:44.118Z,80.60
2017-11-18T18:03:12.412Z,80.00
2017-11-18T18:05:40.132Z,80.40
2017-11-18T18:08:08.281Z,79.90
2017-11-18T18:10:35.881Z,78.60
2017-11-18T18:13:04.471Z,79.10
2017-11-18T18:15:32.890Z,79.60
2017-11-18T18:18:00.664Z,79.60
2017-11-18T18:20:28.266Z,81.20
2017-11-18T18:22:56.652Z,83.10
2017-11-18T18:25:24.222Z,83.00
2017-11-18T18:27:51.983Z,80.20
2017-11-18T18:30:19.661Z,78.60
2017-11-18T18:32:47.430Z,78.20
2017-11-18T18:35:15.158Z,79.60
2017-11-18T18:37:43.418Z,79.00
2017-11-18T18:40:11.181Z,78.30
2017-11-18T18:42:38.842Z,76.10
2017-11-18T18:45:06.443Z,77.10
2017-11-18T18:47:34.077Z,77.80
2017-11-18T18:50:01.767Z,78.10
2017-11-18T18:52:29.386Z,78.20
2017-11-18T18:54:58.261Z,77.80
2017-11-18T18:57:26.072Z,77.50
2017-11-18T18:59:53.982Z,77.70
2017-11-18T19:02:21.795Z,78.20
2017-11-18T19:04:49.492Z,77.10
2017-11-18T19:07:17.929Z,77.00
2017-11-18T19:09:46.414Z,76.80
2017-11-18T19:12:14.960Z,76.80
2017-11-18T19:14:42.667Z,76.30
2017-11-18T19:17:11.699Z,76.70
2017-11-18T19:19:39.397Z,76.70
2017-11-18T19:22:07.882Z,77.70
2017-11-18T19:24:36.624Z,79.50
2017-11-18T19:27:04.186Z,79.40
2017-11-18T19:29:32.074Z,77.90
2017-11-18T19:32:00.529Z,77.90
2017-11-18T19:34:28.848Z,77.60
2017-11-18T19:36:57.367Z,77.20
2017-11-18T19:39:26.187Z,76.70
2017-11-18T19:41:55.469Z,76.10
2017-11-18T19:44:23.233Z,75.50
2017-11-18T19:46:52.815Z,76.30
2017-11-18T19:49:22.294Z,76.50
2017-11-18T19:51:49.898Z,76.40
2017-11-18T19:54:17.485Z,76.00
2017-11-18T19:56:45.126Z,76.40
2017-11-18T19:59:12.917Z,76.30
2017-11-18T20:01:41.521Z,76.40
2017-11-18T20:04:09.878Z,75.40
2017-11-18T20:06:39.008Z,76.50
2017-11-18T20:09:06.663Z,76.70
2017-11-18T20:11:34.285Z,76.80
2017-11-18T20:14:03.804Z,76.00
2017-11-18T20:16:33.156Z,77.90
2017-11-18T20:19:01.265Z,77.90
2017-11-18T20:21:28.922Z,77.50
2017-11-18T20:23:57.769Z,77.20
2017-11-18T20:26:26.306Z,78.60
2017-11-18T20:28:54.891Z,78.60
2017-11-18T20:31:23.661Z,80.10
2017-11-18T20:33:53.347Z,80.10
2017-11-18T20:36:22.557Z,78.50
2017-11-18T20:38:50.213Z,78.60
2017-11-18T20:41:18.356Z,79.30
2017-11-18T20:43:46.091Z,81.60
2017-11-18T20:46:14.252Z,79.40
2017-11-18T20:48:42.656Z,80.70
2017-11-18T20:51:11.419Z,80.70
2017-11-18T20:53:39.799Z,80.60
2017-11-18T20:56:09.306Z,80.10
2017-11-18T20:58:37.645Z,79.50
2017-11-18T21:01:06.451Z,78.80
2017-11-18T21:03:36.076Z,81.30
2017-11-18T21:06:04.274Z,81.30
2017-11-18T21:08:32.068Z,82.30
2017-11-18T21:10:59.713Z,82.60
2017-11-18T21:13:27.460Z,83.40
2017-11-18T21:15:55.160Z,83.70
2017-11-18T21:18:23.929Z,83.80
2017-11-18T21:20:52.333Z,84.00
2017-11-18T21:23:21.205Z,83.90
2017-11-18T21:25:49.012Z,83.60
2017-11-18T21:28:16.821Z,83.30
2017-11-18T21:30:44.731Z,83.20
2017-11-18T21:33:12.404Z,82.10
2017-11-18T21:35:40.332Z,81.00
2017-11-18T21:38:08.184Z,79.50
2017-11-18T21:40:35.877Z,80.20
2017-11-18T21:43:03.559Z,78.40
2017-11-18T21:45:31.166Z,78.50
2017-11-18T21:47:59.669Z,79.20
2017-11-18T21:50:27.249Z,79.10
2017-11-18T21:52:55.109Z,78.00
2017-11-18T21:55:22.916Z,76.30
2017-11-18T21:57:50.615Z,76.00
2017-11-18T22:00:18.354Z,76.00
2017-11-18T22:02:46.125Z,77.00
2017-11-18T22:05:13.757Z,76.00
2017-11-18T22:07:42.385Z,76.50
2017-11-18T22:10:10.200Z,76.20
2017-11-18T22:12:38.832Z,76.80
2017-11-18T22:15:06.415Z,77.50
2017-11-18T22:17:34.012Z,77.30
2017-11-18T22:20:02.406Z,77.80
2017-11-18T22:22:30.842Z,78.90
2017-11-18T22:24:59.410Z,78.80
2017-11-18T22:27:27.118Z,80.00
2017-11-18T22:29:54.967Z,79.90
2017-11-18T22:32:22.798Z,81.10
2017-11-18T22:34:52.083Z,82.30
2017-11-18T22:37:24.687Z,82.40
2017-11-18T22:39:52.334Z,82.20
2017-11-18T22:42:20.758Z,84.20
2017-11-18T22:44:49.419Z,84.20
2017-11-18T22:47:17.212Z,84.20
2017-11-18T22:49:47.295Z,85.10
2017-11-18T22:52:15.156Z,85.50
2017-11-18T22:54:43.113Z,85.90
2017-11-18T22:57:11.788Z,86.80
2017-11-18T22:59:41.405Z,86.80
2017-11-18T23:02:09.725Z,87.10
2017-11-18T23:04:37.552Z,87.10
2017-11-18T23:07:07.316Z,87.20
2017-11-18T23:09:36.167Z,87.20
2017-11-18T23:12:03.907Z,88.30
2017-11-18T23:14:32.242Z,88.40
2017-11-18T23:17:00.412Z,88.30
2017-11-18T23:19:28.069Z,89.20
2017-11-18T23:21:56.620Z,88.80
2017-11-18T23:24:24.156Z,88.50
2017-11-18T23:26:52.293Z,86.50
2017-11-18T23:29:21.632Z,87.90
2017-11-18T23:31:50.831Z,87.90
2017-11-18T23:34:18.445Z,89.30
2017-11-18T23:36:46.575Z,90.40
2017-11-18T23:39:15.000Z,91.10
2017-11-18T23:41:43.342Z,91.20
2017-11-18T23:44:12.303Z,91.70
2017-11-18T23:46:39.877Z,91.90
2017-11-18T23:49:07.457Z,92.10
2017-11-18T23:51:35.798Z,92.00
2017-11-18T23:54:04.152Z,90.00
2017-11-18T23:56:31.695Z,89.90
2017-11-18T23:59:00.265Z,90.50
